Time;durP1;ratioP1;P1;durP2;ratioP2;P2;SDS_P1;SDS_P2;PMS_P1;PMS_P2;Temp;Humidity;BMP_temperature;BMP_pressure;BME280_temperature;BME280_humidity;BME280_pressure;Samples;Min_cycle;Max_cycle;Signal;HPM_P1;HPM_P2
2021/04/23 00:01:51;;;;;;;16.75;7.35;;;;;;;6.36;82.93;101599.25;5186183;28;20030;-80
2021/04/23 00:04:21;;;;;;;18.48;7.60;;;;;;;6.26;83.32;101594.09;5186729;28;20100;-80
2021/04/23 00:06:55;;;;;;;20.33;7.43;;;;;;;6.32;82.76;101588.88;5190294;28;20085;-80
2021/04/23 00:09:31;;;;;;;23.88;7.57;;;;;;;6.26;83.25;101599.28;5170421;28;20095;-81
2021/04/23 00:12:09;;;;;;;22.23;7.65;;;;;;;6.11;83.92;101588.94;5173889;28;20090;-81
2021/04/23 00:14:43;;;;;;;24.98;7.85;;;;;;;6.00;84.54;101588.94;5174207;28;20053;-80
2021/04/23 00:17:14;;;;;;;18.80;8.15;;;;;;;6.05;84.10;101588.94;5187624;28;20046;-80
2021/04/23 00:19:45;;;;;;;20.63;7.93;;;;;;;6.16;84.15;101597.56;5170497;28;20034;-80
2021/04/23 00:22:15;;;;;;;18.77;7.45;;;;;;;6.10;83.62;101597.59;5170652;28;20076;-80
2021/04/23 00:24:46;;;;;;;23.90;7.78;;;;;;;6.07;84.24;101607.97;5172653;28;20026;-81
2021/04/23 00:27:16;;;;;;;20.77;8.20;;;;;;;6.03;85.20;101609.69;5170085;28;20045;-81
2021/04/23 00:29:47;;;;;;;17.33;7.60;;;;;;;6.14;84.24;101605.38;5171460;28;20026;-78
2021/04/23 00:35:07;;;;;;;20.33;8.23;;;;;;;5.95;85.95;101607.97;5170446;28;20476;-78
2021/04/23 00:37:37;;;;;;;23.98;8.15;;;;;;;5.94;86.08;101604.50;5184313;28;20033;-78
2021/04/23 00:40:08;;;;;;;22.17;8.48;;;;;;;6.12;85.09;101608.81;5184851;28;20056;-80
2021/04/23 00:42:38;;;;;;;25.50;8.10;;;;;;;6.25;84.98;101605.34;5189937;28;20036;-78
2021/04/23 00:45:13;;;;;;;19.35;8.68;;;;;;;6.18;84.15;101601.91;5182453;28;20720;-80
2021/04/23 00:47:53;;;;;;;21.05;8.23;;;;;;;6.23;83.87;101605.34;5178722;28;20045;-80
2021/04/23 00:50:39;;;;;;;17.02;8.18;;;;;;;6.29;84.95;101604.47;5185088;28;20568;-79
2021/04/23 00:53:13;;;;;;;18.60;7.93;;;;;;;6.16;85.45;101598.44;5194232;28;20716;-80
2021/04/23 00:55:44;;;;;;;19.70;8.20;;;;;;;6.13;84.91;101593.25;5183801;28;20088;-80
2021/04/23 00:58:17;;;;;;;22.92;9.23;;;;;;;6.08;85.13;101596.72;5184193;28;20041;-80
2021/04/23 01:00:51;;;;;;;19.15;8.60;;;;;;;6.17;84.95;101592.38;5174357;28;20563;-80
2021/04/23 01:03:23;;;;;;;24.42;8.52;;;;;;;6.18;85.12;101601.91;5187796;28;20093;-80
2021/04/23 01:05:54;;;;;;;20.95;8.93;;;;;;;6.29;85.63;101599.28;5183858;28;20014;-80
2021/04/23 01:08:26;;;;;;;23.85;8.55;;;;;;;6.24;85.23;101595.84;5178133;28;20068;-80
2021/04/23 01:11:00;;;;;;;25.50;9.48;;;;;;;6.17;85.92;101594.97;5187070;28;20072;-80
2021/04/23 01:13:31;;;;;;;23.83;9.02;;;;;;;6.20;85.73;101607.06;5182930;28;20040;-80
2021/04/23 01:16:04;;;;;;;19.88;8.38;;;;;;;5.99;86.17;101605.38;5172151;28;20070;-80
2021/04/23 01:18:36;;;;;;;19.75;9.20;;;;;;;6.09;86.06;101606.25;5182585;28;20080;-80
2021/04/23 01:21:20;;;;;;;18.25;8.82;;;;;;;6.15;85.82;101601.03;5189829;28;20030;-80
2021/04/23 01:23:52;;;;;;;18.98;8.98;;;;;;;6.11;86.25;101604.50;5182333;28;20030;-80
2021/04/23 01:26:26;;;;;;;24.15;8.88;;;;;;;6.00;86.67;101606.22;5187258;28;20030;-80
2021/04/23 01:28:57;;;;;;;23.42;9.30;;;;;;;6.11;86.39;101615.72;5190606;28;20500;-80
2021/04/23 01:31:30;;;;;;;22.05;8.57;;;;;;;6.27;85.35;101611.41;5190322;28;20598;-80
2021/04/23 01:34:14;;;;;;;20.38;8.73;;;;;;;6.21;86.08;101603.59;5191861;28;20041;-80
2021/04/23 01:36:45;;;;;;;17.80;8.75;;;;;;;6.33;85.54;101604.47;5180063;28;20030;-80
2021/04/23 01:39:20;;;;;;;26.80;9.43;;;;;;;6.43;85.73;101600.97;5180952;28;20041;-80
2021/04/23 01:41:52;;;;;;;20.77;8.68;;;;;;;6.42;85.11;101607.03;5185440;28;20466;-80
2021/04/23 01:44:26;;;;;;;22.23;8.70;;;;;;;6.36;85.39;101600.97;5182409;28;20034;-80
2021/04/23 01:46:58;;;;;;;17.63;8.60;;;;;;;6.43;84.73;101597.53;5170380;28;20041;-80
2021/04/23 01:49:29;;;;;;;23.42;9.23;;;;;;;6.35;85.23;101607.03;5171109;28;20072;-80
2021/04/23 01:52:12;;;;;;;17.98;8.25;;;;;;;6.51;84.66;101606.13;5187569;28;20034;-80
2021/04/23 01:54:43;;;;;;;23.73;9.25;;;;;;;6.31;85.23;101608.81;5189184;28;20025;-80
2021/04/23 01:57:13;;;;;;;21.23;9.00;;;;;;;6.42;84.67;101606.19;5181172;28;20077;-79
2021/04/23 01:59:45;;;;;;;20.58;8.23;;;;;;;6.44;84.82;101609.63;5185904;28;20551;-80
2021/04/23 02:02:17;;;;;;;21.60;8.23;;;;;;;6.55;84.55;101611.31;5189950;28;20064;-80
2021/04/23 02:04:48;;;;;;;21.80;7.75;;;;;;;6.58;84.00;101606.13;5188976;28;20034;-80
2021/04/23 02:07:19;;;;;;;21.15;7.80;;;;;;;6.43;84.61;101605.31;5184521;28;20029;-80
2021/04/23 02:09:49;;;;;;;22.50;8.57;;;;;;;6.43;84.77;101610.50;5189103;28;20049;-80
2021/04/23 02:12:20;;;;;;;19.27;8.15;;;;;;;6.38;85.08;101610.50;5172630;28;20023;-80
2021/04/23 02:14:50;;;;;;;21.05;7.88;;;;;;;6.48;84.63;101613.94;5173751;28;20389;-80
2021/04/23 02:17:21;;;;;;;24.95;7.75;;;;;;;6.46;85.30;101615.69;5188561;28;20033;-79
2021/04/23 02:19:51;;;;;;;16.45;7.40;;;;;;;6.47;84.89;101620.00;5192022;28;20076;-80
2021/04/23 02:22:22;;;;;;;21.88;8.18;;;;;;;6.47;84.46;101625.19;5190916;28;20022;-80
2021/04/23 02:24:52;;;;;;;21.55;7.90;;;;;;;6.46;84.89;101626.06;5180154;28;20057;-79
2021/04/23 02:27:22;;;;;;;19.30;7.65;;;;;;;6.49;84.78;101624.34;5173280;28;20116;-80
2021/04/23 02:29:52;;;;;;;18.67;7.75;;;;;;;6.46;85.03;101634.72;5195092;28;20045;-80
2021/04/23 02:32:23;;;;;;;17.75;7.40;;;;;;;6.48;85.24;101630.41;5194174;23;20114;-79
2021/04/23 02:34:54;;;;;;;21.63;7.82;;;;;;;6.47;84.40;101636.47;5157885;28;20125;-78
2021/04/23 02:37:25;;;;;;;17.48;7.68;;;;;;;6.48;84.61;101634.72;5152248;28;20098;-80
2021/04/23 02:39:56;;;;;;;18.50;7.65;;;;;;;6.50;84.75;101630.38;5156486;28;20062;-79
2021/04/23 02:42:27;;;;;;;18.60;8.32;;;;;;;6.48;84.92;101630.41;5145175;28;20035;-80
2021/04/23 02:44:57;;;;;;;19.27;8.38;;;;;;;6.50;85.22;101625.19;5134689;28;20110;-80
2021/04/23 02:47:28;;;;;;;19.27;7.30;;;;;;;6.47;84.65;101633.00;5127888;28;20432;-78
2021/04/23 02:49:59;;;;;;;18.20;7.75;;;;;;;6.54;84.57;101637.28;5134308;28;20019;-79
2021/04/23 02:52:30;;;;;;;18.60;7.68;;;;;;;6.51;85.28;101632.97;5137634;28;20022;-79
2021/04/23 02:55:01;;;;;;;17.52;8.00;;;;;;;6.56;85.27;101635.59;5139932;28;20443;-80
2021/04/23 02:57:31;;;;;;;17.52;7.75;;;;;;;6.61;84.42;101641.63;5125482;28;20035;-80
2021/04/23 03:00:07;;;;;;;19.90;7.68;;;;;;;6.58;84.52;101637.28;5134233;28;20508;-79
2021/04/23 03:02:37;;;;;;;17.13;7.60;;;;;;;6.46;85.27;101636.47;5136032;28;20077;-81
2021/04/23 03:05:08;;;;;;;20.73;7.63;;;;;;;6.67;84.77;101639.00;5136986;28;20452;-80
2021/04/23 03:07:38;;;;;;;22.75;8.02;;;;;;;6.51;84.74;101632.97;5131000;28;20027;-79
2021/04/23 03:10:10;;;;;;;18.95;6.97;;;;;;;6.52;84.89;101629.53;5132352;28;20106;-81
2021/04/23 03:12:41;;;;;;;20.02;7.22;;;;;;;6.42;85.78;101632.16;5135270;28;20015;-80
2021/04/23 03:15:13;;;;;;;16.45;7.63;;;;;;;6.41;85.40;101630.41;5138203;28;20026;-81
2021/04/23 03:17:43;;;;;;;19.25;7.18;;;;;;;6.42;85.08;101633.00;5139250;28;20022;-81
2021/04/23 03:20:16;;;;;;;19.02;7.18;;;;;;;6.39;85.25;101632.16;5136490;28;20620;-81
2021/04/23 03:22:47;;;;;;;21.45;8.65;;;;;;;6.56;84.92;101631.22;5135002;28;20034;-80
2021/04/23 03:25:17;;;;;;;16.10;6.95;;;;;;;6.56;84.97;101628.63;5134461;28;20106;-80
2021/04/23 03:27:48;;;;;;;24.15;7.13;;;;;;;6.60;84.77;101627.75;5128584;28;20242;-79
2021/04/23 03:30:23;;;;;;;18.20;7.75;;;;;;;6.54;84.58;101622.59;5140478;28;20027;-80
2021/04/23 03:32:54;;;;;;;19.50;7.22;;;;;;;6.52;84.85;101633.84;5136023;28;20473;-80
2021/04/23 03:35:26;;;;;;;19.83;7.80;;;;;;;6.56;85.05;101631.22;5127608;28;20090;-79
2021/04/23 03:37:58;;;;;;;19.23;7.60;;;;;;;6.59;84.97;101632.97;5139915;28;20027;-81
2021/04/23 03:40:30;;;;;;;18.85;7.60;;;;;;;6.61;84.79;101636.44;5137014;28;20404;-81
2021/04/23 03:43:01;;;;;;;19.13;7.50;;;;;;;6.60;84.59;101638.13;5137898;28;20110;-80
2021/04/23 03:45:31;;;;;;;17.83;7.20;;;;;;;6.64;84.88;101639.00;5134734;28;20058;-78
2021/04/23 03:48:03;;;;;;;18.50;7.18;;;;;;;6.56;84.27;101636.44;5139980;28;20037;-81
2021/04/23 03:50:36;;;;;;;24.08;7.22;;;;;;;6.77;84.33;101631.16;5140697;28;20027;-81
2021/04/23 03:53:10;;;;;;;20.88;7.63;;;;;;;6.72;84.54;101638.13;5137205;28;20039;-81
2021/04/23 03:55:48;;;;;;;17.52;7.38;;;;;;;6.68;84.71;101628.63;5133826;28;20078;-79
2021/04/23 03:58:20;;;;;;;19.25;7.13;;;;;;;6.63;84.71;101629.50;5134128;28;20031;-81
2021/04/23 04:00:54;;;;;;;17.50;7.40;;;;;;;6.54;84.75;101645.06;5136474;28;20031;-81
2021/04/23 04:03:26;;;;;;;18.50;7.28;;;;;;;6.61;85.12;101639.88;5123839;28;20027;-80
2021/04/23 04:05:57;;;;;;;16.83;6.85;;;;;;;6.83;84.86;101645.88;5131377;28;20556;-79
2021/04/23 04:08:27;;;;;;;16.05;6.72;;;;;;;6.57;85.10;101647.69;5124181;28;20035;-78
2021/04/23 04:10:59;;;;;;;17.08;6.85;;;;;;;6.47;85.66;101656.34;5131774;28;20027;-79
2021/04/23 04:13:29;;;;;;;16.27;6.90;;;;;;;6.53;85.08;101656.34;5133750;28;20028;-79
2021/04/23 04:16:01;;;;;;;18.55;7.65;;;;;;;6.56;85.86;101661.56;5134921;28;20023;-78
2021/04/23 04:18:31;;;;;;;19.55;6.65;;;;;;;6.54;85.54;101663.25;5128572;28;20028;-79
2021/04/23 04:21:03;;;;;;;18.38;7.50;;;;;;;6.56;85.89;101665.00;5123995;28;20038;-80
2021/04/23 04:23:33;;;;;;;16.35;7.22;;;;;;;6.54;85.53;101669.31;5132631;28;20377;-80
2021/04/23 04:26:04;;;;;;;20.90;7.43;;;;;;;6.59;85.28;101674.53;5135662;28;20482;-79
2021/04/23 04:28:35;;;;;;;21.48;7.85;;;;;;;6.41;85.67;101679.75;5120875;28;20031;-80
2021/04/23 04:31:05;;;;;;;23.00;7.50;;;;;;;6.44;85.55;101672.78;5117585;28;20102;-80
2021/04/23 04:33:36;;;;;;;22.27;7.95;;;;;;;6.39;85.92;101677.13;5117219;28;20027;-79
2021/04/23 04:36:06;;;;;;;18.33;7.45;;;;;;;6.57;85.75;101678.84;5125779;28;20031;-79
2021/04/23 04:38:37;;;;;;;19.42;7.18;;;;;;;6.55;85.76;101671.06;5132582;28;20031;-79
2021/04/23 04:41:07;;;;;;;20.00;7.72;;;;;;;6.68;85.05;101672.75;5128415;28;20047;-79
2021/04/23 04:43:39;;;;;;;20.60;7.35;;;;;;;6.66;85.82;101678.81;5123510;28;20628;-79
2021/04/23 04:46:10;;;;;;;18.17;7.57;;;;;;;6.66;85.19;101678.81;5134121;28;20026;-79
2021/04/23 04:48:40;;;;;;;23.50;7.28;;;;;;;6.72;85.09;101692.66;5137178;28;20027;-79
2021/04/23 04:51:11;;;;;;;18.33;7.20;;;;;;;6.71;85.56;101690.06;5134319;28;20030;-81
2021/04/23 04:53:42;;;;;;;20.17;7.13;;;;;;;6.72;85.76;101694.38;5135851;28;20034;-80
2021/04/23 04:56:14;;;;;;;18.88;7.30;;;;;;;6.67;85.55;101703.94;5132198;28;20027;-80
2021/04/23 04:58:45;;;;;;;21.17;7.03;;;;;;;6.61;86.32;101698.75;5127994;28;20031;-79
2021/04/23 05:01:16;;;;;;;23.25;7.20;;;;;;;6.71;85.38;101698.72;5135693;28;20065;-80
2021/04/23 05:03:46;;;;;;;21.50;7.63;;;;;;;6.61;86.40;101709.16;5134491;28;20058;-79
2021/04/23 05:06:18;;;;;;;23.33;8.40;;;;;;;6.68;85.86;101703.06;5127376;28;20066;-78
2021/04/23 05:08:49;;;;;;;21.38;7.93;;;;;;;6.62;86.06;101713.47;5127060;28;20500;-79
2021/04/23 05:11:19;;;;;;;16.25;7.50;;;;;;;6.77;85.64;101705.66;5138745;28;20033;-80
2021/04/23 05:13:49;;;;;;;17.65;7.20;;;;;;;6.68;86.45;101710.84;5133687;28;20018;-80
2021/04/23 05:16:20;;;;;;;18.42;7.28;;;;;;;6.77;85.41;101708.25;5128282;28;20038;-81
2021/04/23 05:18:50;;;;;;;23.65;7.65;;;;;;;6.72;85.46;101717.75;5125995;28;20046;-82
2021/04/23 05:21:20;;;;;;;16.77;7.40;;;;;;;6.67;85.73;101717.78;5136688;28;20030;-81
2021/04/23 05:23:51;;;;;;;26.85;8.27;;;;;;;6.57;85.94;101715.22;5124462;28;20028;-80
2021/04/23 05:26:21;;;;;;;21.67;7.30;;;;;;;6.82;85.84;101719.50;5132601;28;20031;-80
2021/04/23 05:28:51;;;;;;;20.90;8.25;;;;;;;6.78;85.69;101725.56;5132845;28;20051;-79
2021/04/23 05:31:22;;;;;;;15.88;7.50;;;;;;;6.78;85.94;101720.38;5121080;28;20043;-81
2021/04/23 05:33:52;;;;;;;15.48;7.20;;;;;;;6.96;85.69;101715.97;5136465;28;20552;-82
2021/04/23 05:36:23;;;;;;;20.02;7.53;;;;;;;7.07;85.26;101721.16;5121999;28;20119;-81
2021/04/23 05:38:53;;;;;;;21.13;7.68;;;;;;;6.88;84.99;101722.06;5128850;28;20540;-78
2021/04/23 05:41:23;;;;;;;23.92;7.80;;;;;;;6.92;85.04;101729.00;5132811;28;20035;-80
2021/04/23 05:43:54;;;;;;;20.67;7.57;;;;;;;7.11;85.12;101721.13;5135307;28;20054;-80
2021/04/23 05:46:24;;;;;;;18.10;8.07;;;;;;;7.29;84.44;101729.75;5133697;28;20097;-82
2021/04/23 05:48:54;;;;;;;15.68;7.03;;;;;;;7.12;84.43;101728.06;5137242;28;20027;-82
2021/04/23 05:51:24;;;;;;;23.98;7.45;;;;;;;7.09;83.98;101733.28;5133943;28;20042;-82
2021/04/23 05:53:55;;;;;;;21.08;8.20;;;;;;;7.10;84.20;101728.94;5132710;28;20034;-81
2021/04/23 05:56:25;;;;;;;19.73;7.70;;;;;;;7.16;84.45;101731.53;5129320;28;20552;-81
2021/04/23 05:58:56;;;;;;;19.40;7.82;;;;;;;7.06;84.73;101737.59;5129369;28;20179;-80
2021/04/23 06:01:26;;;;;;;22.88;8.30;;;;;;;7.27;83.61;101734.97;5140311;28;20066;-81
2021/04/23 06:03:57;;;;;;;19.00;7.90;;;;;;;7.39;84.05;101736.63;5136740;28;20034;-81
2021/04/23 06:06:27;;;;;;;20.08;7.90;;;;;;;7.44;83.53;101747.88;5139430;28;20037;-79
2021/04/23 06:08:58;;;;;;;18.90;7.35;;;;;;;7.52;82.59;101730.50;5128440;28;20031;-80
2021/04/23 06:11:29;;;;;;;22.88;8.25;;;;;;;7.72;82.11;101738.22;5136602;28;20052;-82
2021/04/23 06:13:59;;;;;;;18.58;7.63;;;;;;;7.48;82.27;101734.00;5128759;28;20110;-82
2021/04/23 06:16:29;;;;;;;17.88;7.38;;;;;;;7.60;82.60;101733.94;5133086;28;20416;-81
2021/04/23 06:19:01;;;;;;;20.05;7.90;;;;;;;7.59;83.03;101734.81;5137423;28;20050;-80
2021/04/23 06:21:32;;;;;;;18.20;7.60;;;;;;;7.70;82.72;101740.81;5138108;28;20031;-81
2021/04/23 06:24:03;;;;;;;19.42;7.25;;;;;;;7.63;82.28;101739.13;5137604;28;20098;-80
2021/04/23 06:26:33;;;;;;;19.63;7.53;;;;;;;7.58;82.09;101740.91;5136126;28;20564;-81
2021/04/23 06:29:03;;;;;;;17.20;7.32;;;;;;;7.79;81.96;101742.50;5127946;28;20031;-81
2021/04/23 06:31:34;;;;;;;24.17;8.23;;;;;;;7.88;81.36;101745.91;5131173;28;20054;-81
2021/04/23 06:34:04;;;;;;;17.60;7.22;;;;;;;7.92;81.87;101751.97;5126776;28;20030;-80
2021/04/23 06:36:35;;;;;;;24.40;7.47;;;;;;;8.22;81.09;101757.88;5130007;28;20038;-82
2021/04/23 06:39:14;;;;;;;22.83;7.70;;;;;;;8.15;80.22;101750.06;5137884;28;20059;-80
2021/04/23 06:41:46;;;;;;;18.40;8.02;;;;;;;8.24;80.73;101757.88;5136688;28;20070;-81
2021/04/23 06:44:16;;;;;;;24.70;8.15;;;;;;;8.50;79.60;101751.56;5134575;28;20033;-81
2021/04/23 06:46:46;;;;;;;20.63;7.40;;;;;;;9.65;76.00;101755.53;5134824;28;20484;-82
2021/04/23 06:49:18;;;;;;;16.95;6.60;;;;;;;9.31;75.31;101758.56;5140879;28;20042;-81
2021/04/23 06:51:49;;;;;;;17.33;6.75;;;;;;;9.37;74.26;101761.97;5123633;28;20035;-81
2021/04/23 06:54:20;;;;;;;17.23;6.45;;;;;;;9.11;73.10;101760.56;5135589;28;20493;-81
2021/04/23 06:56:50;;;;;;;14.32;5.93;;;;;;;9.68;71.94;101750.25;5132894;28;20038;-81
2021/04/23 06:59:21;;;;;;;15.70;5.60;;;;;;;9.29;71.02;101755.97;5125819;28;20553;-82
2021/04/23 07:01:51;;;;;;;14.93;4.95;;;;;;;9.16;70.71;101754.38;5127366;28;20102;-81
2021/04/23 07:04:21;;;;;;;14.27;5.53;;;;;;;9.17;71.67;101765.69;5141207;28;20027;-81
2021/04/23 07:06:51;;;;;;;15.57;5.35;;;;;;;8.45;73.18;101771.59;5147054;28;20026;-81
2021/04/23 07:09:22;;;;;;;15.38;5.28;;;;;;;8.50;72.36;101775.03;5134216;28;20038;-81
2021/04/23 07:11:52;;;;;;;14.30;5.30;;;;;;;8.63;72.52;101778.38;5137460;28;20493;-81
2021/04/23 07:14:23;;;;;;;17.17;5.35;;;;;;;8.48;70.80;101775.91;5137038;28;20019;-81
2021/04/23 07:16:54;;;;;;;14.90;4.35;;;;;;;8.22;71.23;101778.69;5125661;28;20027;-80
2021/04/23 07:19:24;;;;;;;14.48;5.18;;;;;;;8.28;73.14;101778.66;5134750;28;20424;-81
2021/04/23 07:21:54;;;;;;;15.15;5.50;;;;;;;8.12;73.01;101771.81;5138210;28;20027;-81
2021/04/23 07:24:25;;;;;;;20.42;5.43;;;;;;;8.99;70.95;101780.66;5123638;28;20037;-81
2021/04/23 07:26:55;;;;;;;16.00;5.30;;;;;;;8.93;71.68;101778.97;5133763;28;20054;-81
2021/04/23 07:29:25;;;;;;;13.15;5.50;;;;;;;8.72;72.10;101781.78;5135538;28;20481;-81
2021/04/23 07:31:55;;;;;;;21.52;6.15;;;;;;;8.60;72.64;101775.81;5128333;28;20031;-80
2021/04/23 07:34:26;;;;;;;18.08;5.88;;;;;;;9.00;71.74;101764.13;5144183;28;20026;-81
2021/04/23 07:36:56;;;;;;;13.52;4.90;;;;;;;8.86;70.23;101774.69;5135185;28;20114;-81
2021/04/23 07:39:27;;;;;;;12.85;5.03;;;;;;;8.88;68.77;101774.69;5126618;28;20517;-81
2021/04/23 07:41:58;;;;;;;15.00;4.47;;;;;;;12.22;63.00;101757.81;5134382;28;20099;-82
2021/04/23 07:44:28;;;;;;;13.68;4.20;;;;;;;11.40;61.41;101765.69;5131841;28;20061;-81
2021/04/23 07:46:59;;;;;;;11.73;4.18;;;;;;;10.37;65.21;101774.53;5136474;28;20595;-80
2021/04/23 07:49:29;;;;;;;11.95;4.20;;;;;;;10.32;66.14;101779.00;5134944;28;20473;-82
2021/04/23 07:51:59;;;;;;;16.10;4.78;;;;;;;10.35;66.60;101784.16;5132691;28;20031;-81
2021/04/23 07:54:31;;;;;;;14.90;4.88;;;;;;;10.66;66.66;101788.88;5135310;28;20370;-81
2021/04/23 07:57:02;;;;;;;16.88;5.40;;;;;;;9.63;68.59;101791.22;5131183;28;20039;-81
2021/04/23 07:59:32;;;;;;;18.10;5.15;;;;;;;9.35;69.73;101802.84;5138346;28;20703;-81
2021/04/23 08:02:03;;;;;;;12.63;4.20;;;;;;;9.82;66.86;101791.88;5134849;28;20658;-81
2021/04/23 08:04:37;;;;;;;10.30;3.70;;;;;;;12.54;61.41;101778.88;5132029;28;20386;-82
2021/04/23 08:07:08;;;;;;;13.65;3.90;;;;;;;14.55;56.37;101773.06;5130805;28;20030;-82
2021/04/23 08:09:40;;;;;;;10.13;3.88;;;;;;;12.66;58.11;101788.19;5131461;28;20159;-82
2021/04/23 08:12:11;;;;;;;14.90;4.65;;;;;;;10.99;62.76;101795.28;5133600;28;20686;-81
2021/04/23 08:14:42;;;;;;;15.63;4.45;;;;;;;12.48;61.15;101783.41;5134529;28;20038;-82
2021/04/23 08:17:12;;;;;;;15.75;4.63;;;;;;;13.84;57.03;101777.94;5137042;28;20031;-82
2021/04/23 08:19:42;;;;;;;12.93;3.95;;;;;;;12.62;59.29;101782.16;5133449;28;20031;-82
2021/04/23 08:22:13;;;;;;;11.88;3.70;;;;;;;12.21;60.59;101784.03;5129532;28;20106;-82
2021/04/23 08:24:43;;;;;;;17.67;3.70;;;;;;;11.51;61.05;101789.91;5137137;28;20031;-81
2021/04/23 08:27:14;;;;;;;13.90;4.05;;;;;;;10.75;62.32;101793.97;5132633;28;20058;-81
2021/04/23 08:29:44;;;;;;;15.65;3.95;;;;;;;11.51;61.27;101791.66;5125008;28;20026;-81
2021/04/23 08:32:15;;;;;;;14.25;3.78;;;;;;;12.65;57.68;101786.47;5161867;23;20047;-79
2021/04/23 08:34:45;;;;;;;17.60;3.78;;;;;;;12.42;59.30;101784.41;5164862;28;20186;-79
2021/04/23 08:37:16;;;;;;;12.02;3.50;;;;;;;11.81;60.42;101789.28;5171799;28;20096;-79
2021/04/23 08:39:46;;;;;;;17.85;4.03;;;;;;;12.45;59.74;101786.09;5171819;28;20084;-79
2021/04/23 08:42:16;;;;;;;12.30;3.90;;;;;;;12.79;59.21;101790.47;5169488;28;20325;-79
2021/04/23 08:44:47;;;;;;;12.55;3.83;;;;;;;11.78;61.56;101788.50;5159448;28;20485;-79
2021/04/23 08:47:18;;;;;;;12.07;3.95;;;;;;;11.30;62.28;101795.53;5163496;28;20114;-78
2021/04/23 08:49:49;;;;;;;14.43;3.90;;;;;;;10.81;63.51;101798.19;5158496;28;20049;-78
2021/04/23 08:52:19;;;;;;;11.65;3.72;;;;;;;10.80;63.02;101796.47;5161746;28;20408;-79
2021/04/23 08:54:50;;;;;;;15.95;3.83;;;;;;;12.24;58.52;101792.69;5161381;28;20092;-78
2021/04/23 08:57:20;;;;;;;11.68;3.47;;;;;;;14.35;54.57;101781.63;5163662;28;20095;-79
2021/04/23 08:59:50;;;;;;;14.13;3.67;;;;;;;13.81;55.39;101779.78;5159146;28;20031;-79
2021/04/23 09:02:21;;;;;;;13.82;3.55;;;;;;;14.71;53.60;101779.56;5153123;28;20064;-79
2021/04/23 09:04:51;;;;;;;10.38;3.38;;;;;;;13.20;54.85;101787.69;5161414;28;20030;-79
2021/04/23 09:07:21;;;;;;;17.30;3.65;;;;;;;12.73;57.39;101790.63;5151380;28;20033;-79
2021/04/23 09:09:52;;;;;;;14.77;3.92;;;;;;;12.41;57.25;101792.28;5161291;28;20057;-79
2021/04/23 09:12:25;;;;;;;13.60;3.90;;;;;;;13.33;56.46;101795.19;5161001;28;20030;-79
2021/04/23 09:14:56;;;;;;;13.63;3.78;;;;;;;14.28;55.25;101782.72;5162791;28;20085;-79
2021/04/23 09:17:27;;;;;;;10.88;3.55;;;;;;;13.27;55.46;101782.19;5160486;28;20038;-79
2021/04/23 09:19:59;;;;;;;14.98;4.40;;;;;;;12.27;58.65;101800.50;5150397;28;20038;-79
2021/04/23 09:22:30;;;;;;;11.82;3.85;;;;;;;12.88;58.83;101795.50;5160913;28;20029;-79
2021/04/23 09:25:03;;;;;;;14.98;3.92;;;;;;;12.31;59.86;101804.75;5161191;28;20070;-79
2021/04/23 09:27:36;;;;;;;13.13;4.07;;;;;;;11.81;60.46;101799.75;5161376;28;20059;-78
2021/04/23 09:30:09;;;;;;;13.63;3.88;;;;;;;11.46;60.40;101804.81;5161488;28;20027;-78
2021/04/23 09:32:42;;;;;;;12.93;3.70;;;;;;;11.15;60.83;101794.97;5160624;28;20030;-78
2021/04/23 09:35:17;;;;;;;13.43;3.72;;;;;;;12.63;57.99;101781.25;5160959;28;20034;-79
2021/04/23 09:37:56;;;;;;;13.07;3.63;;;;;;;12.87;57.97;101788.53;5148776;28;20714;-79
2021/04/23 09:40:32;;;;;;;11.65;3.60;;;;;;;12.69;58.16;101783.75;5153344;28;20038;-79
2021/04/23 09:43:05;;;;;;;13.05;4.00;;;;;;;12.68;59.13;101795.16;5160540;28;20121;-79
2021/04/23 09:45:48;;;;;;;13.50;3.90;;;;;;;12.35;59.45;101798.56;5159082;28;20037;-78
2021/04/23 09:48:25;;;;;;;14.95;3.90;;;;;;;11.55;60.68;101807.28;5156390;28;20058;-79
2021/04/23 09:50:56;;;;;;;14.52;4.00;;;;;;;12.06;59.67;101811.47;5157204;28;20030;-79
2021/04/23 09:53:31;;;;;;;16.88;3.63;;;;;;;12.44;58.95;101808.81;5161204;28;20034;-78
2021/04/23 09:56:01;;;;;;;14.25;3.85;;;;;;;12.47;58.45;101808.75;5161154;28;20041;-79
2021/04/23 09:58:31;;;;;;;19.02;4.50;;;;;;;12.50;58.37;101807.81;5163935;28;20030;-79
2021/04/23 10:01:02;;;;;;;19.35;4.65;;;;;;;12.59;59.01;101808.47;5163365;28;20443;-79
2021/04/23 10:03:33;;;;;;;16.48;4.25;;;;;;;12.59;58.46;101807.59;5162644;28;20035;-79
2021/04/23 10:06:22;;;;;;;16.20;4.13;;;;;;;12.40;58.11;101816.78;5163664;28;20038;-79
2021/04/23 10:09:05;;;;;;;9.57;3.45;;;;;;;12.19;58.12;101807.69;5154080;28;20037;-79
2021/04/23 10:11:41;;;;;;;20.38;5.07;;;;;;;12.47;59.69;101811.38;5164424;28;20076;-79
2021/04/23 10:14:16;;;;;;;16.05;4.60;;;;;;;12.30;57.16;101805.66;5163955;28;20056;-79
2021/04/23 10:16:46;;;;;;;16.42;4.57;;;;;;;12.52;59.28;101806.03;5134222;28;20081;-79
2021/04/23 10:19:16;;;;;;;17.83;4.28;;;;;;;12.95;59.25;101812.00;5158585;28;20034;-79
2021/04/23 10:21:48;;;;;;;15.87;4.20;;;;;;;13.19;57.69;101804.31;5162608;28;20061;-79
2021/04/23 10:24:22;;;;;;;14.90;3.80;;;;;;;12.59;57.65;101797.97;5141725;28;20277;-79
2021/04/23 10:26:54;;;;;;;13.10;4.00;;;;;;;13.15;57.46;101794.78;5162509;28;20035;-79
2021/04/23 10:29:24;;;;;;;17.65;3.88;;;;;;;12.95;57.98;101796.25;5157315;28;20031;-78
2021/04/23 10:31:55;;;;;;;14.73;4.40;;;;;;;12.96;57.97;101796.19;5168063;28;20092;-79
2021/04/23 10:34:25;;;;;;;12.68;3.90;;;;;;;12.84;58.47;101798.22;5156651;28;20110;-79
2021/04/23 10:36:56;;;;;;;13.40;4.65;;;;;;;12.56;60.60;101805.03;5152646;28;20056;-79
2021/04/23 10:39:27;;;;;;;17.92;4.68;;;;;;;12.14;59.79;101809.50;5161813;28;20183;-78
2021/04/23 10:41:58;;;;;;;13.93;4.72;;;;;;;12.51;59.82;101810.44;5161292;28;20476;-78
2021/04/23 10:44:51;;;;;;;14.40;4.00;;;;;;;12.50;57.26;101813.91;5162603;28;20034;-78
2021/04/23 10:47:32;;;;;;;14.55;4.70;;;;;;;12.56;57.63;101798.06;5160779;28;20027;-78
2021/04/23 10:50:05;;;;;;;13.93;4.70;;;;;;;12.80;57.91;101797.44;5159558;28;20122;-78
2021/04/23 10:52:57;;;;;;;14.57;4.30;;;;;;;12.86;58.64;101797.31;5145719;28;20113;-79
2021/04/23 10:55:44;;;;;;;18.58;7.72;;;;;;;13.24;58.12;101789.31;5161331;28;20034;-78
2021/04/23 10:58:34;;;;;;;15.77;4.97;;;;;;;12.65;58.02;101803.06;5163456;28;20045;-78
2021/04/23 11:01:51;;;;;;;14.18;4.28;;;;;;;12.47;59.16;101803.50;5157795;28;20046;-78
2021/04/23 11:04:22;;;;;;;16.80;4.50;;;;;;;12.56;59.10;101805.94;5148892;28;20042;-78
2021/04/23 11:06:59;;;;;;;15.50;4.70;;;;;;;12.60;58.64;101798.84;5162986;28;20543;-79
2021/04/23 11:09:30;;;;;;;19.80;4.82;;;;;;;12.45;59.06;101800.06;5136464;28;20041;-78
2021/04/23 11:12:06;;;;;;;14.50;4.22;;;;;;;12.22;59.00;101802.38;5163770;28;20468;-78
2021/04/23 11:14:37;;;;;;;16.08;5.53;;;;;;;12.41;58.98;101800.16;5164791;28;20029;-79
2021/04/23 11:17:17;;;;;;;10.93;4.07;;;;;;;12.36;58.25;101791.53;5152319;28;20569;-78
2021/04/23 11:19:49;;;;;;;17.42;5.05;;;;;;;12.31;57.81;101799.50;5162494;28;20073;-78
2021/04/23 11:22:26;;;;;;;13.18;4.50;;;;;;;12.39;58.15;101794.97;5157509;28;20037;-78
2021/04/23 11:25:23;;;;;;;12.77;4.57;;;;;;;12.63;59.07;101789.13;5152337;28;20022;-78
2021/04/23 11:27:59;;;;;;;14.60;5.80;;;;;;;12.70;59.32;101785.47;5156480;28;20038;-78
2021/04/23 11:31:05;;;;;;;13.25;4.30;;;;;;;12.72;57.38;101780.16;5163611;28;20031;-78
2021/04/23 11:33:49;;;;;;;17.10;5.68;;;;;;;12.68;56.75;101791.63;5142847;28;20034;-78
2021/04/23 11:36:30;;;;;;;15.35;5.53;;;;;;;12.77;57.95;101797.53;5154577;28;20063;-79
2021/04/23 11:39:05;;;;;;;14.82;5.47;;;;;;;13.03;59.06;101801.22;5163188;28;20022;-79
2021/04/23 11:41:35;;;;;;;12.48;4.55;;;;;;;12.96;58.23;101798.81;5161225;28;20139;-78
2021/04/23 11:44:44;;;;;;;21.58;5.95;;;;;;;13.19;58.59;101792.06;5163546;28;20022;-78
2021/04/23 11:47:18;;;;;;;19.67;6.28;;;;;;;13.28;57.08;101794.44;5164433;28;20026;-79
2021/04/23 11:50:18;;;;;;;15.75;4.97;;;;;;;13.18;57.09;101786.84;5163118;28;20022;-79